sensor_id;sensor_type;location;lat;lon;timestamp;temperature;humidity
24232;DHT22;12364;47.810;8.810;2023-07-31T03:46:02;17.80;89.40
24232;DHT22;12364;47.810;8.810;2023-07-31T03:48:29;17.70;89.30
24232;DHT22;12364;47.810;8.810;2023-07-31T03:50:56;17.70;89.30
24232;DHT22;12364;47.810;8.810;2023-07-31T03:53:23;17.70;90.00
24232;DHT22;12364;47.810;8.810;2023-07-31T03:55:50;17.60;89.10
24232;DHT22;12364;47.810;8.810;2023-07-31T03:58:17;17.50;89.20
24232;DHT22;12364;47.810;8.810;2023-07-31T04:00:45;17.60;89.30
24232;DHT22;12364;47.810;8.810;2023-07-31T04:03:12;17.50;89.20
24232;DHT22;12364;47.810;8.810;2023-07-31T04:05:39;17.50;89.50
24232;DHT22;12364;47.810;8.810;2023-07-31T04:08:06;17.60;90.00
24232;DHT22;12364;47.810;8.810;2023-07-31T04:10:33;17.60;90.10
24232;DHT22;12364;47.810;8.810;2023-07-31T04:13:00;17.70;90.10
24232;DHT22;12364;47.810;8.810;2023-07-31T04:15:27;17.70;90.10
24232;DHT22;12364;47.810;8.810;2023-07-31T04:17:54;17.70;90.10
24232;DHT22;12364;47.810;8.810;2023-07-31T04:20:21;17.70;90.20
24232;DHT22;12364;47.810;8.810;2023-07-31T04:22:49;17.70;90.10
24232;DHT22;12364;47.810;8.810;2023-07-31T04:25:16;17.70;90.10
24232;DHT22;12364;47.810;8.810;2023-07-31T04:27:43;17.70;90.20
24232;DHT22;12364;47.810;8.810;2023-07-31T04:30:10;17.70;90.10
24232;DHT22;12364;47.810;8.810;2023-07-31T04:32:37;17.70;90.20
24232;DHT22;12364;47.810;8.810;2023-07-31T04:35:04;17.60;90.20
24232;DHT22;12364;47.810;8.810;2023-07-31T04:37:31;17.60;90.10
24232;DHT22;12364;47.810;8.810;2023-07-31T04:39:58;17.50;90.00
24232;DHT22;12364;47.810;8.810;2023-07-31T04:42:26;17.30;90.20
24232;DHT22;12364;47.810;8.810;2023-07-31T04:44:53;17.20;90.50
24232;DHT22;12364;47.810;8.810;2023-07-31T04:47:20;17.20;90.50
24232;DHT22;12364;47.810;8.810;2023-07-31T04:49:47;17.20;90.60
24232;DHT22;12364;47.810;8.810;2023-07-31T04:52:14;17.30;90.90
24232;DHT22;12364;47.810;8.810;2023-07-31T04:54:41;17.50;90.60
24232;DHT22;12364;47.810;8.810;2023-07-31T04:57:08;17.40;90.60
24232;DHT22;12364;47.810;8.810;2023-07-31T04:59:34;17.40;90.70
24232;DHT22;12364;47.810;8.810;2023-07-31T05:02:02;17.40;90.80
24232;DHT22;12364;47.810;8.810;2023-07-31T05:04:29;17.40;90.90
24232;DHT22;12364;47.810;8.810;2023-07-31T05:06:56;17.40;91.00
24232;DHT22;12364;47.810;8.810;2023-07-31T05:09:23;17.40;91.10
24232;DHT22;12364;47.810;8.810;2023-07-31T05:11:50;17.40;91.20
24232;DHT22;12364;47.810;8.810;2023-07-31T05:14:17;17.40;91.30
24232;DHT22;12364;47.810;8.810;2023-07-31T05:16:44;17.50;91.50
24232;DHT22;12364;47.810;8.810;2023-07-31T05:19:11;17.50;91.50
24232;DHT22;12364;47.810;8.810;2023-07-31T05:21:38;17.40;91.90
24232;DHT22;12364;47.810;8.810;2023-07-31T05:24:05;17.50;91.90
24232;DHT22;12364;47.810;8.810;2023-07-31T05:26:32;17.50;91.90
24232;DHT22;12364;47.810;8.810;2023-07-31T05:28:59;17.60;91.90
24232;DHT22;12364;47.810;8.810;2023-07-31T05:31:26;17.50;91.90
24232;DHT22;12364;47.810;8.810;2023-07-31T05:33:53;17.50;92.10
24232;DHT22;12364;47.810;8.810;2023-07-31T05:36:20;17.50;92.10
24232;DHT22;12364;47.810;8.810;2023-07-31T05:38:47;17.60;92.20
24232;DHT22;12364;47.810;8.810;2023-07-31T05:41:14;17.60;92.40
24232;DHT22;12364;47.810;8.810;2023-07-31T05:43:41;17.60;92.50
24232;DHT22;12364;47.810;8.810;2023-07-31T05:46:09;17.60;92.50
24232;DHT22;12364;47.810;8.810;2023-07-31T05:48:36;17.60;92.50
24232;DHT22;12364;47.810;8.810;2023-07-31T05:51:03;17.70;92.50
24232;DHT22;12364;47.810;8.810;2023-07-31T05:53:30;17.60;92.50
24232;DHT22;12364;47.810;8.810;2023-07-31T05:55:57;17.70;92.50
24232;DHT22;12364;47.810;8.810;2023-07-31T05:58:24;17.70;92.50
24232;DHT22;12364;47.810;8.810;2023-07-31T06:00:51;17.70;92.50
24232;DHT22;12364;47.810;8.810;2023-07-31T06:03:18;17.80;92.70
24232;DHT22;12364;47.810;8.810;2023-07-31T06:05:45;17.80;92.70
24232;DHT22;12364;47.810;8.810;2023-07-31T06:08:12;17.90;92.70
24232;DHT22;12364;47.810;8.810;2023-07-31T06:10:39;17.80;92.70
24232;DHT22;12364;47.810;8.810;2023-07-31T06:13:06;17.90;92.90
24232;DHT22;12364;47.810;8.810;2023-07-31T06:15:33;17.90;92.90
24232;DHT22;12364;47.810;8.810;2023-07-31T06:18:00;18.00;92.90
24232;DHT22;12364;47.810;8.810;2023-07-31T06:20:29;18.00;93.00
24232;DHT22;12364;47.810;8.810;2023-07-31T06:22:56;18.10;92.90
24232;DHT22;12364;47.810;8.810;2023-07-31T06:25:23;18.20;92.90
24232;DHT22;12364;47.810;8.810;2023-07-31T06:27:49;18.20;92.90
24232;DHT22;12364;47.810;8.810;2023-07-31T06:30:16;18.30;92.90
24232;DHT22;12364;47.810;8.810;2023-07-31T06:32:43;18.40;92.70
24232;DHT22;12364;47.810;8.810;2023-07-31T06:35:11;18.40;92.70
24232;DHT22;12364;47.810;8.810;2023-07-31T06:37:38;18.40;92.70
24232;DHT22;12364;47.810;8.810;2023-07-31T06:40:07;18.50;92.80
24232;DHT22;12364;47.810;8.810;2023-07-31T06:42:35;18.50;92.80
24232;DHT22;12364;47.810;8.810;2023-07-31T06:45:02;18.50;93.10
24232;DHT22;12364;47.810;8.810;2023-07-31T06:47:29;18.60;93.20
24232;DHT22;12364;47.810;8.810;2023-07-31T06:49:56;18.60;93.40
24232;DHT22;12364;47.810;8.810;2023-07-31T06:52:23;18.70;93.60
24232;DHT22;12364;47.810;8.810;2023-07-31T06:55:00;18.70;93.80
24232;DHT22;12364;47.810;8.810;2023-07-31T06:57:27;18.80;94.10
24232;DHT22;12364;47.810;8.810;2023-07-31T06:59:54;19.00;93.90
24232;DHT22;12364;47.810;8.810;2023-07-31T07:02:21;18.90;94.00
24232;DHT22;12364;47.810;8.810;2023-07-31T07:04:48;18.90;94.00
24232;DHT22;12364;47.810;8.810;2023-07-31T07:07:15;19.00;94.10
24232;DHT22;12364;47.810;8.810;2023-07-31T07:09:42;19.00;94.00
24232;DHT22;12364;47.810;8.810;2023-07-31T07:12:09;19.10;94.00
24232;DHT22;12364;47.810;8.810;2023-07-31T07:14:36;19.20;94.00
24232;DHT22;12364;47.810;8.810;2023-07-31T07:17:03;19.20;93.90
24232;DHT22;12364;47.810;8.810;2023-07-31T07:19:31;19.30;93.10
24232;DHT22;12364;47.810;8.810;2023-07-31T07:21:58;19.30;92.60
24232;DHT22;12364;47.810;8.810;2023-07-31T07:24:26;19.40;92.90
24232;DHT22;12364;47.810;8.810;2023-07-31T07:26:53;19.50;92.90
24232;DHT22;12364;47.810;8.810;2023-07-31T07:29:21;19.60;92.50
24232;DHT22;12364;47.810;8.810;2023-07-31T07:31:48;19.60;91.50
24232;DHT22;12364;47.810;8.810;2023-07-31T07:34:14;19.60;91.90
24232;DHT22;12364;47.810;8.810;2023-07-31T07:36:42;19.60;92.20
24232;DHT22;12364;47.810;8.810;2023-07-31T07:39:10;19.70;92.20
24232;DHT22;12364;47.810;8.810;2023-07-31T07:41:37;19.80;91.70
24232;DHT22;12364;47.810;8.810;2023-07-31T07:44:05;19.80;91.20
24232;DHT22;12364;47.810;8.810;2023-07-31T07:46:32;19.80;90.70
24232;DHT22;12364;47.810;8.810;2023-07-31T07:48:59;19.90;90.90
24232;DHT22;12364;47.810;8.810;2023-07-31T07:51:26;20.00;90.80
24232;DHT22;12364;47.810;8.810;2023-07-31T07:53:53;20.00;90.70
24232;DHT22;12364;47.810;8.810;2023-07-31T07:56:20;20.10;90.60
24232;DHT22;12364;47.810;8.810;2023-07-31T07:58:50;20.10;90.00
24232;DHT22;12364;47.810;8.810;2023-07-31T08:01:17;20.10;89.90
24232;DHT22;12364;47.810;8.810;2023-07-31T08:03:44;20.10;89.80
24232;DHT22;12364;47.810;8.810;2023-07-31T08:06:11;20.20;90.50
24232;DHT22;12364;47.810;8.810;2023-07-31T08:08:38;20.30;90.30
24232;DHT22;12364;47.810;8.810;2023-07-31T08:11:05;20.20;89.20
24232;DHT22;12364;47.810;8.810;2023-07-31T08:13:32;20.30;89.70
24232;DHT22;12364;47.810;8.810;2023-07-31T08:15:59;20.30;89.90
24232;DHT22;12364;47.810;8.810;2023-07-31T08:18:26;20.40;90.00
24232;DHT22;12364;47.810;8.810;2023-07-31T08:20:53;20.30;90.00
24232;DHT22;12364;47.810;8.810;2023-07-31T08:23:20;20.40;90.00
24232;DHT22;12364;47.810;8.810;2023-07-31T08:25:47;20.40;89.10
24232;DHT22;12364;47.810;8.810;2023-07-31T08:28:16;20.40;89.50
24232;DHT22;12364;47.810;8.810;2023-07-31T08:30:43;20.50;89.30
24232;DHT22;12364;47.810;8.810;2023-07-31T08:33:10;20.50;89.20
24232;DHT22;12364;47.810;8.810;2023-07-31T08:35:37;20.50;89.90
24232;DHT22;12364;47.810;8.810;2023-07-31T08:38:04;20.60;90.10
24232;DHT22;12364;47.810;8.810;2023-07-31T08:40:31;20.70;89.40
24232;DHT22;12364;47.810;8.810;2023-07-31T08:42:58;20.80;90.30
24232;DHT22;12364;47.810;8.810;2023-07-31T08:45:29;20.80;89.80
24232;DHT22;12364;47.810;8.810;2023-07-31T08:47:56;20.80;89.50
24232;DHT22;12364;47.810;8.810;2023-07-31T08:50:26;20.90;88.70
24232;DHT22;12364;47.810;8.810;2023-07-31T08:52:54;20.90;87.10
24232;DHT22;12364;47.810;8.810;2023-07-31T08:55:24;20.90;87.70
24232;DHT22;12364;47.810;8.810;2023-07-31T08:57:52;21.00;88.00
24232;DHT22;12364;47.810;8.810;2023-07-31T09:00:20;21.20;87.10
24232;DHT22;12364;47.810;8.810;2023-07-31T09:05:15;21.20;85.60
24232;DHT22;12364;47.810;8.810;2023-07-31T09:07:42;21.00;85.80
24232;DHT22;12364;47.810;8.810;2023-07-31T09:10:13;21.10;86.50
24232;DHT22;12364;47.810;8.810;2023-07-31T09:12:40;21.20;85.50
24232;DHT22;12364;47.810;8.810;2023-07-31T09:15:08;21.20;84.40
24232;DHT22;12364;47.810;8.810;2023-07-31T09:17:46;21.10;83.90
24232;DHT22;12364;47.810;8.810;2023-07-31T09:20:20;21.10;84.50
24232;DHT22;12364;47.810;8.810;2023-07-31T09:22:50;21.20;84.50
24232;DHT22;12364;47.810;8.810;2023-07-31T09:25:24;21.20;84.50
24232;DHT22;12364;47.810;8.810;2023-07-31T09:27:53;21.20;85.60
24232;DHT22;12364;47.810;8.810;2023-07-31T09:30:20;21.40;85.50
24232;DHT22;12364;47.810;8.810;2023-07-31T09:32:48;21.40;84.40
24232;DHT22;12364;47.810;8.810;2023-07-31T09:35:28;21.30;85.20
24232;DHT22;12364;47.810;8.810;2023-07-31T09:37:55;21.40;85.00
24232;DHT22;12364;47.810;8.810;2023-07-31T09:40:36;21.50;85.10
24232;DHT22;12364;47.810;8.810;2023-07-31T09:43:04;21.60;84.50
24232;DHT22;12364;47.810;8.810;2023-07-31T09:45:46;21.60;84.70
24232;DHT22;12364;47.810;8.810;2023-07-31T09:48:17;21.70;83.80
24232;DHT22;12364;47.810;8.810;2023-07-31T09:50:45;21.70;83.00
24232;DHT22;12364;47.810;8.810;2023-07-31T09:53:12;21.50;82.50
24232;DHT22;12364;47.810;8.810;2023-07-31T09:55:40;21.50;83.30
24232;DHT22;12364;47.810;8.810;2023-07-31T09:58:08;21.60;84.60
24232;DHT22;12364;47.810;8.810;2023-07-31T10:00:35;21.70;84.70
24232;DHT22;12364;47.810;8.810;2023-07-31T10:03:06;21.80;82.90
24232;DHT22;12364;47.810;8.810;2023-07-31T10:05:35;21.80;82.40
24232;DHT22;12364;47.810;8.810;2023-07-31T10:08:02;21.80;82.90
24232;DHT22;12364;47.810;8.810;2023-07-31T10:10:29;21.90;83.10
24232;DHT22;12364;47.810;8.810;2023-07-31T10:12:57;21.90;83.30
24232;DHT22;12364;47.810;8.810;2023-07-31T10:15:25;22.00;82.70
24232;DHT22;12364;47.810;8.810;2023-07-31T10:17:53;22.00;82.60
24232;DHT22;12364;47.810;8.810;2023-07-31T10:20:21;22.10;82.30
24232;DHT22;12364;47.810;8.810;2023-07-31T10:22:48;22.20;83.00
24232;DHT22;12364;47.810;8.810;2023-07-31T10:25:15;22.30;82.00
24232;DHT22;12364;47.810;8.810;2023-07-31T10:27:43;22.30;81.60
24232;DHT22;12364;47.810;8.810;2023-07-31T10:30:12;22.30;82.00
24232;DHT22;12364;47.810;8.810;2023-07-31T10:32:40;22.40;81.50
24232;DHT22;12364;47.810;8.810;2023-07-31T10:35:08;22.40;81.20
24232;DHT22;12364;47.810;8.810;2023-07-31T10:37:38;22.50;81.50
24232;DHT22;12364;47.810;8.810;2023-07-31T10:40:12;22.50;81.60
24232;DHT22;12364;47.810;8.810;2023-07-31T10:42:58;22.60;81.70
24232;DHT22;12364;47.810;8.810;2023-07-31T10:48:01;22.70;80.40
24232;DHT22;12364;47.810;8.810;2023-07-31T10:50:29;22.70;79.50
24232;DHT22;12364;47.810;8.810;2023-07-31T10:52:56;22.50;78.90
24232;DHT22;12364;47.810;8.810;2023-07-31T10:58:07;22.60;78.80
24232;DHT22;12364;47.810;8.810;2023-07-31T11:00:34;22.70;78.90
24232;DHT22;12364;47.810;8.810;2023-07-31T11:03:04;22.70;76.30
24232;DHT22;12364;47.810;8.810;2023-07-31T11:08:10;22.70;77.30
24232;DHT22;12364;47.810;8.810;2023-07-31T11:10:37;22.70;78.00
24232;DHT22;12364;47.810;8.810;2023-07-31T11:13:04;22.70;77.80
24232;DHT22;12364;47.810;8.810;2023-07-31T11:15:31;22.80;78.50
24232;DHT22;12364;47.810;8.810;2023-07-31T11:17:59;22.80;78.30
24232;DHT22;12364;47.810;8.810;2023-07-31T11:20:26;22.80;78.40
24232;DHT22;12364;47.810;8.810;2023-07-31T11:22:53;22.80;77.70
24232;DHT22;12364;47.810;8.810;2023-07-31T11:25:20;22.90;78.90
24232;DHT22;12364;47.810;8.810;2023-07-31T11:27:49;22.80;77.90
24232;DHT22;12364;47.810;8.810;2023-07-31T11:30:20;22.90;78.60
24232;DHT22;12364;47.810;8.810;2023-07-31T11:32:47;22.90;79.60
24232;DHT22;12364;47.810;8.810;2023-07-31T11:35:14;23.00;79.00
24232;DHT22;12364;47.810;8.810;2023-07-31T11:37:42;23.10;78.50
24232;DHT22;12364;47.810;8.810;2023-07-31T11:40:09;23.00;79.20
24232;DHT22;12364;47.810;8.810;2023-07-31T11:42:36;22.90;79.90
24232;DHT22;12364;47.810;8.810;2023-07-31T11:45:04;22.90;80.20
24232;DHT22;12364;47.810;8.810;2023-07-31T11:47:34;22.90;79.50
24232;DHT22;12364;47.810;8.810;2023-07-31T11:50:02;22.90;80.10
24232;DHT22;12364;47.810;8.810;2023-07-31T11:52:31;23.00;80.60
24232;DHT22;12364;47.810;8.810;2023-07-31T11:54:59;23.20;79.00
24232;DHT22;12364;47.810;8.810;2023-07-31T11:57:26;23.20;79.00
24232;DHT22;12364;47.810;8.810;2023-07-31T11:59:53;23.30;78.90
24232;DHT22;12364;47.810;8.810;2023-07-31T12:02:21;23.30;78.80
24232;DHT22;12364;47.810;8.810;2023-07-31T12:04:49;23.40;78.30
24232;DHT22;12364;47.810;8.810;2023-07-31T12:07:16;23.40;78.50
24232;DHT22;12364;47.810;8.810;2023-07-31T12:09:55;23.40;78.80
24232;DHT22;12364;47.810;8.810;2023-07-31T12:12:22;23.60;79.30
24232;DHT22;12364;47.810;8.810;2023-07-31T12:14:49;23.70;79.40
24232;DHT22;12364;47.810;8.810;2023-07-31T12:17:18;23.80;79.80
24232;DHT22;12364;47.810;8.810;2023-07-31T12:19:48;23.90;77.50
24232;DHT22;12364;47.810;8.810;2023-07-31T12:22:15;23.90;78.80
24232;DHT22;12364;47.810;8.810;2023-07-31T12:24:43;24.00;79.10
24232;DHT22;12364;47.810;8.810;2023-07-31T12:27:14;24.00;77.90
24232;DHT22;12364;47.810;8.810;2023-07-31T12:29:42;24.00;78.90
24232;DHT22;12364;47.810;8.810;2023-07-31T12:34:47;24.20;79.10
24232;DHT22;12364;47.810;8.810;2023-07-31T12:37:14;24.30;77.70
24232;DHT22;12364;47.810;8.810;2023-07-31T12:39:41;24.30;78.70
24232;DHT22;12364;47.810;8.810;2023-07-31T12:42:08;24.30;77.50
24232;DHT22;12364;47.810;8.810;2023-07-31T12:44:35;24.30;78.20
24232;DHT22;12364;47.810;8.810;2023-07-31T12:47:02;24.30;77.90
24232;DHT22;12364;47.810;8.810;2023-07-31T12:49:30;24.30;77.50
24232;DHT22;12364;47.810;8.810;2023-07-31T12:51:57;24.30;77.70
24232;DHT22;12364;47.810;8.810;2023-07-31T12:54:24;24.30;78.70
24232;DHT22;12364;47.810;8.810;2023-07-31T12:56:51;24.30;78.50
24232;DHT22;12364;47.810;8.810;2023-07-31T12:59:18;24.30;78.40
24232;DHT22;12364;47.810;8.810;2023-07-31T13:01:46;24.40;79.30
24232;DHT22;12364;47.810;8.810;2023-07-31T13:04:13;24.50;79.50
24232;DHT22;12364;47.810;8.810;2023-07-31T13:06:40;24.50;78.40
24232;DHT22;12364;47.810;8.810;2023-07-31T13:09:08;24.50;79.30
24232;DHT22;12364;47.810;8.810;2023-07-31T13:11:36;24.50;79.70
24232;DHT22;12364;47.810;8.810;2023-07-31T13:14:03;24.60;79.40
24232;DHT22;12364;47.810;8.810;2023-07-31T13:16:30;24.70;80.30
24232;DHT22;12364;47.810;8.810;2023-07-31T13:18:57;24.80;79.70
24232;DHT22;12364;47.810;8.810;2023-07-31T13:21:24;24.80;78.90
24232;DHT22;12364;47.810;8.810;2023-07-31T13:23:51;24.70;77.50
24232;DHT22;12364;47.810;8.810;2023-07-31T13:26:18;24.70;78.20
24232;DHT22;12364;47.810;8.810;2023-07-31T13:28:45;24.60;78.00
24232;DHT22;12364;47.810;8.810;2023-07-31T13:31:12;24.60;78.10
24232;DHT22;12364;47.810;8.810;2023-07-31T13:33:39;24.70;78.80
24232;DHT22;12364;47.810;8.810;2023-07-31T13:36:10;24.80;77.90
24232;DHT22;12364;47.810;8.810;2023-07-31T13:38:37;24.70;77.20
24232;DHT22;12364;47.810;8.810;2023-07-31T13:41:04;24.80;78.50
24232;DHT22;12364;47.810;8.810;2023-07-31T13:43:32;24.80;77.10
24232;DHT22;12364;47.810;8.810;2023-07-31T13:45:59;24.80;77.40
24232;DHT22;12364;47.810;8.810;2023-07-31T13:48:36;24.80;78.20
24232;DHT22;12364;47.810;8.810;2023-07-31T13:51:04;24.90;78.30
24232;DHT22;12364;47.810;8.810;2023-07-31T13:53:31;24.90;77.50
24232;DHT22;12364;47.810;8.810;2023-07-31T13:55:58;24.90;76.90
24232;DHT22;12364;47.810;8.810;2023-07-31T13:58:25;25.00;77.60
24232;DHT22;12364;47.810;8.810;2023-07-31T14:00:52;25.00;77.20
24232;DHT22;12364;47.810;8.810;2023-07-31T14:03:19;25.10;77.40
24232;DHT22;12364;47.810;8.810;2023-07-31T14:05:46;25.00;76.70
24232;DHT22;12364;47.810;8.810;2023-07-31T14:08:13;25.00;77.40
24232;DHT22;12364;47.810;8.810;2023-07-31T14:10:40;25.10;77.10
24232;DHT22;12364;47.810;8.810;2023-07-31T14:13:07;25.20;77.10
24232;DHT22;12364;47.810;8.810;2023-07-31T14:15:34;25.10;76.30
24232;DHT22;12364;47.810;8.810;2023-07-31T14:18:02;25.10;76.80
24232;DHT22;12364;47.810;8.810;2023-07-31T14:20:30;25.10;76.70
24232;DHT22;12364;47.810;8.810;2023-07-31T14:22:57;25.10;76.80
24232;DHT22;12364;47.810;8.810;2023-07-31T14:25:24;25.10;77.00
24232;DHT22;12364;47.810;8.810;2023-07-31T14:27:51;25.20;75.80
24232;DHT22;12364;47.810;8.810;2023-07-31T14:30:18;25.20;76.20
24232;DHT22;12364;47.810;8.810;2023-07-31T14:32:45;25.10;76.50
24232;DHT22;12364;47.810;8.810;2023-07-31T14:35:13;25.10;75.40
24232;DHT22;12364;47.810;8.810;2023-07-31T14:37:40;25.10;76.60
24232;DHT22;12364;47.810;8.810;2023-07-31T14:40:08;25.10;75.70
24232;DHT22;12364;47.810;8.810;2023-07-31T14:42:36;25.20;75.60
24232;DHT22;12364;47.810;8.810;2023-07-31T14:45:03;25.20;75.70
24232;DHT22;12364;47.810;8.810;2023-07-31T14:47:30;25.10;76.10
24232;DHT22;12364;47.810;8.810;2023-07-31T14:49:59;25.10;76.10
24232;DHT22;12364;47.810;8.810;2023-07-31T14:52:26;25.10;76.20
24232;DHT22;12364;47.810;8.810;2023-07-31T14:54:53;25.10;76.00
24232;DHT22;12364;47.810;8.810;2023-07-31T14:57:20;25.00;76.20
24232;DHT22;12364;47.810;8.810;2023-07-31T14:59:48;24.90;76.50
24232;DHT22;12364;47.810;8.810;2023-07-31T15:02:15;24.90;76.80
24232;DHT22;12364;47.810;8.810;2023-07-31T15:04:42;24.90;77.10
24232;DHT22;12364;47.810;8.810;2023-07-31T15:07:09;25.00;76.70
24232;DHT22;12364;47.810;8.810;2023-07-31T15:09:36;25.10;77.20
24232;DHT22;12364;47.810;8.810;2023-07-31T15:12:03;25.10;77.50
24232;DHT22;12364;47.810;8.810;2023-07-31T15:14:30;25.20;76.70
24232;DHT22;12364;47.810;8.810;2023-07-31T15:16:58;25.20;76.80
24232;DHT22;12364;47.810;8.810;2023-07-31T15:19:25;25.30;76.20
24232;DHT22;12364;47.810;8.810;2023-07-31T15:21:52;25.30;76.90
24232;DHT22;12364;47.810;8.810;2023-07-31T15:24:19;25.30;76.90
24232;DHT22;12364;47.810;8.810;2023-07-31T15:26:47;25.30;76.60
24232;DHT22;12364;47.810;8.810;2023-07-31T15:29:14;25.40;76.20
24232;DHT22;12364;47.810;8.810;2023-07-31T15:31:46;25.40;76.90
24232;DHT22;12364;47.810;8.810;2023-07-31T15:34:14;25.40;76.40
24232;DHT22;12364;47.810;8.810;2023-07-31T15:36:41;25.40;77.00
24232;DHT22;12364;47.810;8.810;2023-07-31T15:39:08;25.50;76.70
24232;DHT22;12364;47.810;8.810;2023-07-31T15:41:38;25.50;77.20
24232;DHT22;12364;47.810;8.810;2023-07-31T15:44:05;25.50;77.00
24232;DHT22;12364;47.810;8.810;2023-07-31T15:46:33;25.40;76.70
24232;DHT22;12364;47.810;8.810;2023-07-31T15:49:00;25.40;76.90
24232;DHT22;12364;47.810;8.810;2023-07-31T15:51:30;25.40;77.80
24232;DHT22;12364;47.810;8.810;2023-07-31T15:53:57;25.50;77.00
24232;DHT22;12364;47.810;8.810;2023-07-31T15:56:24;25.50;77.30
24232;DHT22;12364;47.810;8.810;2023-07-31T15:58:51;25.60;77.30
24232;DHT22;12364;47.810;8.810;2023-07-31T16:01:18;25.60;77.50
24232;DHT22;12364;47.810;8.810;2023-07-31T16:03:45;25.50;77.80
24232;DHT22;12364;47.810;8.810;2023-07-31T16:06:12;25.60;78.00
24232;DHT22;12364;47.810;8.810;2023-07-31T16:08:39;25.60;78.20
24232;DHT22;12364;47.810;8.810;2023-07-31T16:11:08;25.60;77.50
24232;DHT22;12364;47.810;8.810;2023-07-31T16:13:35;25.60;77.10
24232;DHT22;12364;47.810;8.810;2023-07-31T16:16:03;25.60;77.00
24232;DHT22;12364;47.810;8.810;2023-07-31T16:18:30;25.60;77.30
24232;DHT22;12364;47.810;8.810;2023-07-31T16:20:57;25.60;77.30
24232;DHT22;12364;47.810;8.810;2023-07-31T16:23:25;25.60;77.60
24232;DHT22;12364;47.810;8.810;2023-07-31T16:25:52;25.70;78.10
24232;DHT22;12364;47.810;8.810;2023-07-31T16:28:19;25.70;77.90
24232;DHT22;12364;47.810;8.810;2023-07-31T16:30:46;25.70;77.40
24232;DHT22;12364;47.810;8.810;2023-07-31T16:33:13;25.70;77.90
24232;DHT22;12364;47.810;8.810;2023-07-31T16:35:42;25.70;78.10
24232;DHT22;12364;47.810;8.810;2023-07-31T16:38:09;25.70;78.30
24232;DHT22;12364;47.810;8.810;2023-07-31T16:40:36;25.70;78.20
24232;DHT22;12364;47.810;8.810;2023-07-31T16:43:03;25.70;78.60
24232;DHT22;12364;47.810;8.810;2023-07-31T16:45:30;25.70;78.60
24232;DHT22;12364;47.810;8.810;2023-07-31T16:47:57;25.70;78.60
24232;DHT22;12364;47.810;8.810;2023-07-31T16:50:24;25.70;78.80
24232;DHT22;12364;47.810;8.810;2023-07-31T16:52:51;25.60;78.70
24232;DHT22;12364;47.810;8.810;2023-07-31T16:55:18;25.60;78.70
24232;DHT22;12364;47.810;8.810;2023-07-31T16:57:45;25.60;79.10
24232;DHT22;12364;47.810;8.810;2023-07-31T17:00:13;25.60;79.20
24232;DHT22;12364;47.810;8.810;2023-07-31T17:02:40;25.60;79.10
24232;DHT22;12364;47.810;8.810;2023-07-31T17:05:07;25.60;79.10
24232;DHT22;12364;47.810;8.810;2023-07-31T17:07:35;25.60;79.40
24232;DHT22;12364;47.810;8.810;2023-07-31T17:10:02;25.60;79.40
24232;DHT22;12364;47.810;8.810;2023-07-31T17:12:29;25.60;79.50
24232;DHT22;12364;47.810;8.810;2023-07-31T17:14:56;25.70;79.40
24232;DHT22;12364;47.810;8.810;2023-07-31T17:17:23;25.70;79.20
24232;DHT22;12364;47.810;8.810;2023-07-31T17:19:50;25.60;79.00
24232;DHT22;12364;47.810;8.810;2023-07-31T17:22:17;25.70;79.50
24232;DHT22;12364;47.810;8.810;2023-07-31T17:24:44;25.70;79.60
24232;DHT22;12364;47.810;8.810;2023-07-31T17:27:11;25.70;79.60
24232;DHT22;12364;47.810;8.810;2023-07-31T17:29:38;25.70;79.80
24232;DHT22;12364;47.810;8.810;2023-07-31T17:32:05;25.70;79.40
24232;DHT22;12364;47.810;8.810;2023-07-31T17:34:37;25.70;79.50
24232;DHT22;12364;47.810;8.810;2023-07-31T17:37:04;25.60;79.40
24232;DHT22;12364;47.810;8.810;2023-07-31T17:39:31;25.70;79.30
24232;DHT22;12364;47.810;8.810;2023-07-31T17:41:58;25.70;80.10
24232;DHT22;12364;47.810;8.810;2023-07-31T17:44:25;25.70;79.50
24232;DHT22;12364;47.810;8.810;2023-07-31T17:46:52;25.70;79.80
24232;DHT22;12364;47.810;8.810;2023-07-31T17:49:20;25.70;79.60
24232;DHT22;12364;47.810;8.810;2023-07-31T17:51:47;25.70;79.90
24232;DHT22;12364;47.810;8.810;2023-07-31T17:54:13;25.70;79.70
24232;DHT22;12364;47.810;8.810;2023-07-31T17:56:40;25.70;80.20
24232;DHT22;12364;47.810;8.810;2023-07-31T17:59:08;25.70;80.40
24232;DHT22;12364;47.810;8.810;2023-07-31T18:01:36;25.70;79.80
24232;DHT22;12364;47.810;8.810;2023-07-31T18:04:04;25.70;78.90
24232;DHT22;12364;47.810;8.810;2023-07-31T18:06:32;25.70;79.20
24232;DHT22;12364;47.810;8.810;2023-07-31T18:09:01;25.60;79.70
24232;DHT22;12364;47.810;8.810;2023-07-31T18:11:28;25.60;79.60
24232;DHT22;12364;47.810;8.810;2023-07-31T18:13:58;25.60;79.80
24232;DHT22;12364;47.810;8.810;2023-07-31T18:16:25;25.60;79.70
24232;DHT22;12364;47.810;8.810;2023-07-31T18:18:52;25.60;79.40
24232;DHT22;12364;47.810;8.810;2023-07-31T18:21:20;25.50;79.30
24232;DHT22;12364;47.810;8.810;2023-07-31T18:23:47;25.50;79.70
24232;DHT22;12364;47.810;8.810;2023-07-31T18:26:14;25.50;79.80
24232;DHT22;12364;47.810;8.810;2023-07-31T18:28:41;25.50;79.80
24232;DHT22;12364;47.810;8.810;2023-07-31T18:31:08;25.50;79.30
24232;DHT22;12364;47.810;8.810;2023-07-31T18:33:35;25.40;79.00
24232;DHT22;12364;47.810;8.810;2023-07-31T18:36:05;25.40;79.50
24232;DHT22;12364;47.810;8.810;2023-07-31T18:38:32;25.40;79.40
24232;DHT22;12364;47.810;8.810;2023-07-31T18:40:59;25.30;79.80
24232;DHT22;12364;47.810;8.810;2023-07-31T18:43:26;25.30;79.80
24232;DHT22;12364;47.810;8.810;2023-07-31T18:45:55;25.30;79.40
24232;DHT22;12364;47.810;8.810;2023-07-31T18:48:22;25.30;80.00
24232;DHT22;12364;47.810;8.810;2023-07-31T18:50:50;25.30;80.10
24232;DHT22;12364;47.810;8.810;2023-07-31T18:53:17;25.30;80.70
24232;DHT22;12364;47.810;8.810;2023-07-31T18:55:45;25.30;80.50
24232;DHT22;12364;47.810;8.810;2023-07-31T18:58:12;25.30;80.60
24232;DHT22;12364;47.810;8.810;2023-07-31T19:00:39;25.30;80.70
24232;DHT22;12364;47.810;8.810;2023-07-31T19:03:06;25.30;80.80
24232;DHT22;12364;47.810;8.810;2023-07-31T19:05:33;25.30;81.40
24232;DHT22;12364;47.810;8.810;2023-07-31T19:08:00;25.30;81.60
24232;DHT22;12364;47.810;8.810;2023-07-31T19:10:32;25.30;81.90
24232;DHT22;12364;47.810;8.810;2023-07-31T19:12:59;25.30;82.50
24232;DHT22;12364;47.810;8.810;2023-07-31T19:15:26;25.20;82.50
24232;DHT22;12364;47.810;8.810;2023-07-31T19:17:54;25.20;82.40
24232;DHT22;12364;47.810;8.810;2023-07-31T19:20:21;25.20;82.70
24232;DHT22;12364;47.810;8.810;2023-07-31T19:22:48;25.10;82.60
24232;DHT22;12364;47.810;8.810;2023-07-31T19:25:15;25.10;82.80
24232;DHT22;12364;47.810;8.810;2023-07-31T19:27:42;25.10;83.00
24232;DHT22;12364;47.810;8.810;2023-07-31T19:30:11;25.10;83.10